Mancos, CO

1:35 PM MDT on July 22, 2017 (GMT -0600)
CAVU | | Change Station

Elev 7231 ft 37.37 °N, 108.29 °W | Updated 27 seconds ago

Partly Cloudy
Partly Cloudy
79.0 °F
Feels Like 80 °F
N
0.0
Wind Variable Wind from South
Gusts 0.0 mph

Today
High -- | Low -- °F
--% Chance of Precip.
Yesterday
High -- | Low -- °F
Precip. -- in
Pressure 29.98 in
Visibility 10.0 miles
Clouds Few 12000 ft
Heat Index 80 °F
Dew Point 56 °F
Humidity 45%
Rainfall 0.00 in
Snow Depth Not available.
6:09 AM 8:28 PM
Waning Crescent, 1% visible
METAR KCEZ 221853Z AUTO 19005KT 10SM FEW120 26/13 A3022 RMK AO2 SLP150 T02560128 $
Pressure 29.98 in
Visibility 10.0 miles
Clouds Few 12000 ft
Heat Index 80 °F
Dew Point 56 °F
Humidity 45%
Rainfall 0.00 in
Snow Depth Not available.
6:09 AM 8:28 PM
Waning Crescent, 1% visible
METAR KCEZ 221853Z AUTO 19005KT 10SM FEW120 26/13 A3022 RMK AO2 SLP150 T02560128 $

Get Severe Weather Alerts

Thanks for signing up!

Be on the lookout for a verification email in your inbox.

You'll start receiving the daily forecast at 6 AM.

×

10-Day Weather Forecast

Almanac

Astronomy

Jul. 22, 2017 Rise Set
Actual Time
Civil Twilight
Nautical Twilight
Astronomical Twilight
Moon
Length of Visible Light
Length of Day
Tomorrow will be .
, % of the Moon is Illuminated

Today's Extremes

State Highs State Lows

Community

WunderPhotos

Category 6

Welcome to Category 6. This is the collective home for Weather Underground's featured writeups by Dr. Jeff Masters (right), Bob Henson (left), Chris Burt, and other regular contributors.

Nearby

Air Quality

  Air Quality AQ Index Pollutant
Not available.

Snow Depth

Station Depth Elevation

Earthquake Activity

City Distance Mag. Time & Date
Minimum magnitude displayed is 2.5.

Coastal Water Temperatures

Place Temperature

Stations

Nearby Weather Stations

Station Location Temp. Windchill Dew Point Humidity Wind Precip. Elev Updated Type
                   

Watches & Warnings

There are currently no watches in effect.